createdAt,value
2022-09-05T00:00:22.678Z,6.70
2022-09-05T00:03:09.860Z,6.40
2022-09-05T00:06:03.102Z,6.80
2022-09-05T00:08:33.202Z,6.70
2022-09-05T00:11:42.535Z,5.70
2022-09-05T00:15:14.771Z,7.10
2022-09-05T00:17:22.416Z,6.80
2022-09-05T00:24:25.691Z,6.40
2022-09-05T00:24:31.277Z,6.17
2022-09-05T00:26:17.200Z,6.53
2022-09-05T00:28:57.373Z,6.07
2022-09-05T00:31:54.634Z,6.40
2022-09-05T00:34:39.752Z,6.57
2022-09-05T00:37:35.218Z,5.97
2022-09-05T00:40:21.009Z,6.40
2022-09-05T00:42:52.206Z,7.00
2022-09-05T00:45:29.162Z,6.13
2022-09-05T00:48:03.061Z,5.90
2022-09-05T00:50:57.859Z,6.37
2022-09-05T00:53:41.427Z,7.03
2022-09-05T00:56:25.417Z,6.50
2022-09-05T00:59:29.621Z,5.83
2022-09-05T01:02:06.791Z,7.60
2022-09-05T01:05:06.329Z,6.70
2022-09-05T01:07:53.576Z,7.40
2022-09-05T01:10:33.447Z,6.40
2022-09-05T01:13:18.269Z,6.43
2022-09-05T01:16:12.582Z,7.90
2022-09-05T01:19:09.217Z,6.10
2022-09-05T01:22:09.873Z,7.10
2022-09-05T01:24:55.782Z,6.23
2022-09-05T01:29:01.302Z,6.63
2022-09-05T01:31:04.832Z,6.93
2022-09-05T01:34:10.713Z,6.73
2022-09-05T01:37:03.089Z,7.03
2022-09-05T01:40:15.179Z,6.70
2022-09-05T01:43:20.196Z,6.90
2022-09-05T01:46:11.535Z,7.97
2022-09-05T01:48:57.201Z,7.50
2022-09-05T01:52:00.699Z,6.40
2022-09-05T01:54:51.587Z,6.30
2022-09-05T01:57:48.944Z,6.63
2022-09-05T02:00:47.105Z,6.37
2022-09-05T02:03:25.920Z,8.97
2022-09-05T02:05:55.898Z,5.93
2022-09-05T02:08:52.985Z,6.53
2022-09-05T02:11:55.237Z,6.87
2022-09-05T02:15:00.391Z,7.00
2022-09-05T02:17:50.753Z,6.60
2022-09-05T02:20:24.375Z,6.40
2022-09-05T02:23:00.480Z,7.17
2022-09-05T02:26:01.362Z,6.20
2022-09-05T02:29:28.892Z,6.50
2022-09-05T02:32:30.761Z,6.20
2022-09-05T02:35:13.772Z,7.43
2022-09-05T02:38:58.079Z,7.17
2022-09-05T02:43:27.595Z,6.40
2022-09-05T02:45:21.362Z,7.40
2022-09-05T02:47:08.538Z,6.50
2022-09-05T02:54:05.784Z,6.80
2022-09-05T02:57:24.666Z,6.60
2022-09-05T02:57:38.561Z,7.80
2022-09-05T02:59:08.572Z,6.90
2022-09-05T03:02:00.269Z,6.40
2022-09-05T03:04:36.024Z,6.13
2022-09-05T03:07:35.953Z,7.37
2022-09-05T03:10:20.245Z,7.37
2022-09-05T03:13:26.903Z,7.60
2022-09-05T03:16:15.198Z,6.43
2022-09-05T03:19:05.162Z,6.23
2022-09-05T03:21:59.065Z,6.90
2022-09-05T03:24:55.886Z,7.50
2022-09-05T03:27:50.757Z,7.20
2022-09-05T03:30:26.123Z,7.03
2022-09-05T03:33:12.965Z,6.57
2022-09-05T03:35:45.207Z,6.90
2022-09-05T03:38:14.903Z,7.60
2022-09-05T03:41:02.871Z,7.43
2022-09-05T03:43:50.791Z,6.87
2022-09-05T03:46:41.169Z,7.47
2022-09-05T03:51:22.001Z,6.80
2022-09-05T03:57:05.782Z,6.50
2022-09-05T03:57:27.283Z,6.80
2022-09-05T03:59:11.746Z,7.90
2022-09-05T04:05:41.968Z,7.37
2022-09-05T04:08:19.032Z,7.57
2022-09-05T04:08:34.378Z,6.90
2022-09-05T04:11:10.255Z,7.03
2022-09-05T04:14:08.569Z,6.80
2022-09-05T04:16:51.035Z,7.60
2022-09-05T04:19:28.668Z,6.83
2022-09-05T04:22:11.597Z,6.60
2022-09-05T04:25:18.555Z,6.83
2022-09-05T04:28:20.427Z,7.10
2022-09-05T04:30:51.726Z,6.97
2022-09-05T04:34:08.245Z,6.00
2022-09-05T04:36:37.875Z,6.83
2022-09-05T04:39:18.567Z,6.33
2022-09-05T04:41:56.633Z,6.50
2022-09-05T04:44:37.456Z,6.30
2022-09-05T04:47:36.279Z,7.30
2022-09-05T04:50:25.001Z,6.97
2022-09-05T04:53:13.820Z,6.80
2022-09-05T04:55:55.440Z,6.80
2022-09-05T05:01:01.701Z,8.17
2022-09-05T05:06:01.062Z,7.23
2022-09-05T05:06:14.482Z,6.57
2022-09-05T05:07:46.508Z,6.40
2022-09-05T05:10:58.765Z,6.33
2022-09-05T05:18:02.406Z,6.63
2022-09-05T05:18:16.391Z,6.80
2022-09-05T05:19:27.511Z,8.40
2022-09-05T05:21:58.785Z,7.20
2022-09-05T05:24:33.785Z,5.90
2022-09-05T05:27:23.470Z,6.37
2022-09-05T05:29:56.203Z,6.70
2022-09-05T05:32:47.100Z,6.60
2022-09-05T05:35:18.685Z,8.03
2022-09-05T05:38:05.388Z,5.70
2022-09-05T05:40:41.360Z,5.93
2022-09-05T05:43:25.873Z,6.63
2022-09-05T05:45:58.849Z,6.97
2022-09-05T05:48:39.039Z,8.10
2022-09-05T05:51:50.330Z,7.53
2022-09-05T05:54:32.353Z,6.87
2022-09-05T05:57:27.119Z,6.40
2022-09-05T06:00:27.927Z,6.67
2022-09-05T06:03:43.064Z,6.10
2022-09-05T06:06:45.013Z,7.10
2022-09-05T06:14:52.969Z,8.90
2022-09-05T06:14:59.470Z,8.20
2022-09-05T06:15:49.696Z,11.70
2022-09-05T06:18:53.250Z,14.20
2022-09-05T06:22:09.356Z,18.77
2022-09-05T06:24:40.317Z,18.47
2022-09-05T06:27:19.283Z,18.17
2022-09-05T06:30:04.087Z,16.20
2022-09-05T06:32:58.134Z,17.63
2022-09-05T06:35:59.847Z,16.77
2022-09-05T06:38:52.660Z,15.43
2022-09-05T06:41:22.612Z,14.60
2022-09-05T06:44:00.812Z,15.13
2022-09-05T06:46:55.444Z,15.30
2022-09-05T06:49:46.285Z,16.70
2022-09-05T06:52:37.303Z,16.93
2022-09-05T06:55:31.451Z,15.63
2022-09-05T06:58:26.126Z,17.13
2022-09-05T07:00:56.470Z,15.30
2022-09-05T07:04:49.304Z,13.50
2022-09-05T07:07:01.459Z,12.43
2022-09-05T07:09:47.600Z,11.40
2022-09-05T07:12:30.085Z,14.27
2022-09-05T07:15:12.342Z,12.10
2022-09-05T07:18:09.478Z,11.20
2022-09-05T07:21:17.336Z,9.93
2022-09-05T07:24:11.309Z,11.77
2022-09-05T07:26:52.290Z,10.30
2022-09-05T07:29:27.927Z,9.70
2022-09-05T07:31:56.248Z,9.73
2022-09-05T07:34:31.558Z,8.27
2022-09-05T07:37:20.848Z,9.40
2022-09-05T07:39:59.189Z,7.60
2022-09-05T07:43:10.195Z,7.50
2022-09-05T07:46:14.383Z,10.07
2022-09-05T07:48:44.985Z,6.80
2022-09-05T07:56:46.499Z,7.10
2022-09-05T07:57:08.359Z,5.05
2022-09-05T07:59:59.311Z,5.47
2022-09-05T08:02:26.477Z,5.43
2022-09-05T08:05:03.301Z,5.53
2022-09-05T08:07:50.059Z,5.80
2022-09-05T08:10:31.427Z,4.80
2022-09-05T08:13:23.827Z,4.90
2022-09-05T08:16:10.040Z,5.50
2022-09-05T08:18:50.303Z,5.10
2022-09-05T08:21:31.236Z,6.70
2022-09-05T08:24:24.476Z,6.13
2022-09-05T08:27:03.780Z,6.15
2022-09-05T08:29:37.147Z,6.80
2022-09-05T08:32:12.127Z,5.70
2022-09-05T08:34:44.620Z,5.78
2022-09-05T08:37:13.947Z,5.70
2022-09-05T08:39:50.155Z,5.80
2022-09-05T08:42:37.714Z,6.65
2022-09-05T08:46:42.115Z,6.13
2022-09-05T08:48:12.839Z,8.48
2022-09-05T08:50:56.133Z,6.40
2022-09-05T08:53:46.433Z,9.20
2022-09-05T08:56:22.899Z,6.33
2022-09-05T08:58:54.075Z,13.80
2022-09-05T09:02:47.030Z,6.43
2022-09-05T09:05:01.424Z,4.80
2022-09-05T09:07:47.581Z,6.10
2022-09-05T09:10:31.763Z,5.03
2022-09-05T09:13:23.297Z,4.67
2022-09-05T09:16:14.116Z,4.90
2022-09-05T09:19:07.456Z,5.53
2022-09-05T09:21:42.769Z,5.00
2022-09-05T09:24:27.726Z,6.78
2022-09-05T09:26:57.936Z,5.45
2022-09-05T09:29:25.435Z,6.15
2022-09-05T09:32:08.716Z,3.83
2022-09-05T09:35:21.374Z,5.22
2022-09-05T09:37:52.752Z,6.45
2022-09-05T09:40:29.432Z,4.53
2022-09-05T09:43:15.568Z,4.85
2022-09-05T09:46:07.808Z,5.00
2022-09-05T09:48:35.018Z,4.38
2022-09-05T09:51:11.307Z,3.03
2022-09-05T09:53:38.434Z,5.40
2022-09-05T09:56:21.936Z,3.63
2022-09-05T09:58:57.698Z,4.57
2022-09-05T10:01:53.401Z,5.32
2022-09-05T10:10:34.484Z,3.80
2022-09-05T10:10:52.207Z,4.72
2022-09-05T10:11:37.705Z,3.72
2022-09-05T10:14:07.910Z,4.43
2022-09-05T10:17:18.081Z,5.67
2022-09-05T10:20:11.589Z,5.00
2022-09-05T10:22:39.160Z,7.50
2022-09-05T10:25:19.219Z,4.83
2022-09-05T10:28:07.871Z,3.83
2022-09-05T10:32:29.647Z,5.27
2022-09-05T10:35:17.697Z,4.40
2022-09-05T10:37:10.295Z,5.23
2022-09-05T10:39:39.720Z,5.43
2022-09-05T10:42:08.867Z,4.77
2022-09-05T10:44:46.588Z,5.00
2022-09-05T10:47:19.010Z,5.27
2022-09-05T10:49:49.522Z,5.80
2022-09-05T10:52:22.737Z,6.33
2022-09-05T10:54:59.635Z,4.83
2022-09-05T10:57:54.348Z,5.00
2022-09-05T11:02:20.817Z,4.47
2022-09-05T11:03:22.903Z,5.20
2022-09-05T11:05:58.380Z,12.07
2022-09-05T11:08:35.769Z,4.47
2022-09-05T11:11:28.292Z,4.30
2022-09-05T11:14:07.365Z,3.90
2022-09-05T11:16:55.133Z,4.77
2022-09-05T11:19:29.387Z,3.90
2022-09-05T11:22:19.868Z,4.20
2022-09-05T11:24:55.515Z,3.80
2022-09-05T11:27:28.780Z,3.40
2022-09-05T11:30:02.468Z,3.23
2022-09-05T11:36:06.930Z,4.47
2022-09-05T11:39:50.798Z,5.30
2022-09-05T11:40:25.526Z,3.53
2022-09-05T11:41:29.423Z,3.60
2022-09-05T11:44:24.717Z,4.70
2022-09-05T11:47:27.911Z,3.53
2022-09-05T11:50:10.509Z,3.70
2022-09-05T11:52:41.166Z,3.60
2022-09-05T11:55:21.367Z,3.47
2022-09-05T11:57:56.983Z,3.60
2022-09-05T12:00:34.501Z,5.57
2022-09-05T12:03:57.707Z,3.70
2022-09-05T12:06:25.923Z,5.20
2022-09-05T12:09:20.197Z,3.13
2022-09-05T12:12:18.840Z,4.97
2022-09-05T12:15:11.938Z,2.97
2022-09-05T12:18:19.554Z,4.03
2022-09-05T12:21:10.247Z,3.37
2022-09-05T12:24:49.751Z,9.20
2022-09-05T12:27:38.833Z,3.43
2022-09-05T12:29:39.855Z,3.93
2022-09-05T12:36:11.729Z,3.13
2022-09-05T12:40:53.695Z,3.50
2022-09-05T12:41:37.772Z,3.77
2022-09-05T12:42:09.708Z,3.03
2022-09-05T12:44:40.972Z,3.10
2022-09-05T12:47:19.213Z,4.27
2022-09-05T12:50:03.442Z,3.60
2022-09-05T12:52:58.574Z,3.30
2022-09-05T12:55:33.312Z,3.37
2022-09-05T13:02:57.167Z,4.57
2022-09-05T13:03:06.814Z,4.03
2022-09-05T13:04:16.475Z,4.37
2022-09-05T13:06:46.306Z,5.63
2022-09-05T13:09:21.129Z,3.23
2022-09-05T13:14:50.709Z,4.07
2022-09-05T13:15:11.538Z,5.40
2022-09-05T13:17:51.417Z,3.30
2022-09-05T13:20:36.880Z,4.27
2022-09-05T13:23:15.468Z,3.57
2022-09-05T13:25:45.526Z,3.10
2022-09-05T13:28:14.998Z,3.07
2022-09-05T13:37:39.535Z,2.50
2022-09-05T13:37:58.445Z,4.13
2022-09-05T13:38:13.699Z,4.43
2022-09-05T13:39:33.062Z,3.60
2022-09-05T13:42:03.612Z,3.40
2022-09-05T13:44:36.228Z,3.40
2022-09-05T13:47:29.441Z,4.20
2022-09-05T13:50:16.376Z,3.53
2022-09-05T13:53:04.899Z,4.90
2022-09-05T13:55:35.136Z,2.97
2022-09-05T13:58:07.964Z,6.27
2022-09-05T14:00:38.064Z,3.40
2022-09-05T14:03:37.904Z,3.43
2022-09-05T14:06:46.620Z,4.50
2022-09-05T14:09:44.106Z,3.43
2022-09-05T14:12:42.091Z,3.20
2022-09-05T14:15:19.100Z,4.43
2022-09-05T14:18:22.166Z,4.40
2022-09-05T14:21:10.436Z,3.10
2022-09-05T14:23:42.392Z,3.13
2022-09-05T14:26:15.039Z,3.87
2022-09-05T14:28:46.789Z,3.47
2022-09-05T14:37:34.070Z,3.00
2022-09-05T14:37:45.049Z,3.50
2022-09-05T14:38:01.414Z,3.60
2022-09-05T14:40:30.015Z,3.07
2022-09-05T14:43:13.964Z,3.40
2022-09-05T14:45:54.956Z,5.13
2022-09-05T14:48:45.666Z,3.30
2022-09-05T14:51:25.818Z,4.17
2022-09-05T14:54:02.067Z,3.90
2022-09-05T14:59:44.907Z,4.50
2022-09-05T15:02:49.947Z,3.63
2022-09-05T15:02:51.201Z,3.80
2022-09-05T15:05:46.437Z,3.37
2022-09-05T15:11:24.331Z,3.60
2022-09-05T15:12:16.904Z,3.70
2022-09-05T15:14:07.980Z,3.07
2022-09-05T15:16:40.345Z,6.13
2022-09-05T15:19:10.379Z,3.57
2022-09-05T15:21:40.600Z,3.77
2022-09-05T15:24:21.409Z,3.30
2022-09-05T15:26:59.067Z,4.00
2022-09-05T15:29:30.421Z,3.70
2022-09-05T15:32:13.227Z,4.77
2022-09-05T15:34:40.637Z,6.17
2022-09-05T15:37:29.735Z,3.30
2022-09-05T15:40:03.256Z,3.40
2022-09-05T15:42:32.425Z,3.90
2022-09-05T15:45:16.514Z,4.07
2022-09-05T15:47:47.276Z,3.87
2022-09-05T15:50:22.304Z,3.70
2022-09-05T15:52:52.706Z,3.53
2022-09-05T15:55:23.928Z,3.33
2022-09-05T15:57:54.109Z,4.53
2022-09-05T16:00:41.614Z,3.87
2022-09-05T16:03:30.151Z,3.83
2022-09-05T16:10:31.872Z,4.07
2022-09-05T16:10:50.408Z,3.57
2022-09-05T16:14:39.347Z,4.03
2022-09-05T16:23:13.324Z,4.43
2022-09-05T16:23:25.042Z,3.47
2022-09-05T16:23:34.269Z,4.13
2022-09-05T16:25:50.039Z,4.77
2022-09-05T16:28:20.717Z,4.20
2022-09-05T16:30:48.639Z,3.73
2022-09-05T16:33:17.940Z,3.70
2022-09-05T16:35:57.176Z,3.73
2022-09-05T16:38:34.553Z,3.90
2022-09-05T16:41:22.236Z,3.83
2022-09-05T16:43:54.346Z,4.00
2022-09-05T16:46:42.617Z,3.73
2022-09-05T16:49:43.175Z,3.70
2022-09-05T16:52:17.141Z,3.67
2022-09-05T16:54:47.451Z,3.93
2022-09-05T16:57:35.786Z,3.80
2022-09-05T17:00:05.029Z,4.43
2022-09-05T17:02:49.621Z,4.07
2022-09-05T17:05:39.463Z,4.00
2022-09-05T17:08:25.355Z,3.60
2022-09-05T17:11:12.258Z,4.77
2022-09-05T17:13:56.361Z,3.93
2022-09-05T17:16:37.903Z,4.00
2022-09-05T17:19:14.968Z,3.90
2022-09-05T17:29:11.379Z,3.83
2022-09-05T17:29:18.930Z,3.00
2022-09-05T17:29:36.092Z,3.30
2022-09-05T17:33:44.782Z,3.50
2022-09-05T17:36:42.429Z,4.10
2022-09-05T17:39:31.781Z,3.80
2022-09-05T17:42:25.070Z,3.87
2022-09-05T17:45:07.001Z,4.40
2022-09-05T17:47:46.144Z,3.90
2022-09-05T17:50:28.202Z,3.17
2022-09-05T17:53:26.916Z,3.57
2022-09-05T17:55:52.591Z,3.30
2022-09-05T17:58:49.292Z,3.83
2022-09-05T18:01:27.086Z,3.53
2022-09-05T18:04:16.252Z,3.50
2022-09-05T18:06:52.764Z,3.10
2022-09-05T18:09:48.223Z,4.80
2022-09-05T18:13:14.101Z,3.40
2022-09-05T18:15:27.599Z,4.83
2022-09-05T18:17:59.669Z,4.00
2022-09-05T18:21:12.473Z,3.73
2022-09-05T18:23:54.462Z,3.70
2022-09-05T18:26:24.424Z,4.63
2022-09-05T18:29:02.581Z,4.70
2022-09-05T18:31:41.475Z,4.30
2022-09-05T18:34:20.719Z,3.43
2022-09-05T18:36:55.983Z,7.37
2022-09-05T18:39:37.517Z,3.03
2022-09-05T18:42:26.081Z,4.27
2022-09-05T18:45:15.220Z,3.17
2022-09-05T18:48:00.430Z,3.50
2022-09-05T18:50:32.491Z,5.00
2022-09-05T18:53:09.671Z,3.80
2022-09-05T18:56:12.741Z,4.53
2022-09-05T18:58:29.368Z,3.83
2022-09-05T19:00:57.056Z,4.10
2022-09-05T19:03:29.185Z,4.93
2022-09-05T19:06:35.752Z,3.83
2022-09-05T19:08:52.417Z,3.83
2022-09-05T19:11:28.676Z,3.87
2022-09-05T19:14:25.390Z,4.10
2022-09-05T19:16:48.138Z,4.20
2022-09-05T19:19:16.425Z,4.30
2022-09-05T19:21:57.266Z,4.13
2022-09-05T19:24:45.464Z,3.67
2022-09-05T19:27:58.772Z,3.93
2022-09-05T19:36:45.019Z,6.13
2022-09-05T19:37:13.412Z,3.73
2022-09-05T19:37:14.271Z,4.13
2022-09-05T19:38:23.898Z,4.50
2022-09-05T19:46:37.533Z,4.90
2022-09-05T19:47:36.578Z,6.30
2022-09-05T19:47:42.804Z,3.73
2022-09-05T19:49:36.551Z,6.33
2022-09-05T19:52:16.565Z,4.17
2022-09-05T19:54:45.099Z,4.33
2022-09-05T19:57:17.612Z,4.20
2022-09-05T19:59:45.605Z,4.23
2022-09-05T20:02:20.344Z,3.83
2022-09-05T20:04:56.082Z,4.50
2022-09-05T20:07:24.372Z,3.97
2022-09-05T20:09:52.264Z,4.10
2022-09-05T20:12:25.166Z,4.00
2022-09-05T20:14:52.327Z,6.33
2022-09-05T20:17:30.030Z,6.63
2022-09-05T20:20:11.137Z,3.80
2022-09-05T20:22:49.402Z,4.60
2022-09-05T20:25:36.216Z,5.77
2022-09-05T20:28:11.256Z,4.37
2022-09-05T20:30:41.504Z,4.20
2022-09-05T20:33:28.921Z,4.37
2022-09-05T20:43:08.786Z,4.47
2022-09-05T20:43:18.925Z,4.20
2022-09-05T20:43:23.649Z,3.77
2022-09-05T20:44:50.459Z,4.37
2022-09-05T20:50:41.348Z,4.70
2022-09-05T20:54:08.193Z,4.07
2022-09-05T20:54:33.008Z,3.63
2022-09-05T20:56:25.856Z,3.90
2022-09-05T20:58:55.639Z,3.53
2022-09-05T21:01:23.644Z,4.40
2022-09-05T21:04:03.020Z,4.97
2022-09-05T21:06:34.498Z,4.73
2022-09-05T21:09:24.418Z,6.10
2022-09-05T21:11:53.324Z,5.40
2022-09-05T21:14:22.701Z,5.20
2022-09-05T21:16:59.762Z,7.00
2022-09-05T21:19:32.528Z,5.70
2022-09-05T21:22:22.434Z,5.90
2022-09-05T21:25:43.672Z,5.27
2022-09-05T21:28:36.765Z,5.77
2022-09-05T21:31:12.918Z,4.80
2022-09-05T21:33:45.431Z,5.73
2022-09-05T21:36:14.766Z,5.77
2022-09-05T21:38:43.292Z,5.60
2022-09-05T21:41:15.747Z,5.50
2022-09-05T21:47:39.994Z,7.93
2022-09-05T21:47:49.876Z,9.47
2022-09-05T21:49:18.915Z,6.23
2022-09-05T21:51:53.222Z,6.67
2022-09-05T21:59:16.463Z,6.80
2022-09-05T21:59:26.444Z,5.40
2022-09-05T22:00:10.853Z,5.77
2022-09-05T22:02:38.202Z,6.43
2022-09-05T22:05:05.285Z,8.80
2022-09-05T22:07:35.606Z,6.33
2022-09-05T22:10:04.866Z,5.50
2022-09-05T22:12:36.773Z,6.17
2022-09-05T22:15:28.446Z,6.40
2022-09-05T22:17:58.373Z,6.43
2022-09-05T22:20:44.463Z,6.60
2022-09-05T22:23:11.684Z,6.90
2022-09-05T22:25:39.061Z,6.10
2022-09-05T22:28:20.992Z,8.97
2022-09-05T22:30:55.444Z,6.37
2022-09-05T22:33:24.951Z,6.97
2022-09-05T22:35:51.667Z,6.53
2022-09-05T22:38:20.159Z,6.80
2022-09-05T22:40:47.920Z,7.13
2022-09-05T22:43:16.339Z,6.93
2022-09-05T22:45:43.077Z,7.23
2022-09-05T22:48:12.699Z,5.87
2022-09-05T22:50:40.997Z,6.07
2022-09-05T22:53:09.678Z,7.00
2022-09-05T22:55:38.714Z,6.10
2022-09-05T22:58:06.923Z,7.13
2022-09-05T23:00:34.681Z,6.53
2022-09-05T23:03:03.832Z,7.10
2022-09-05T23:05:32.710Z,8.40
2022-09-05T23:08:00.851Z,6.90
2022-09-05T23:10:29.796Z,6.50
2022-09-05T23:12:56.591Z,6.73
2022-09-05T23:15:23.896Z,6.30
2022-09-05T23:17:55.200Z,6.90
2022-09-05T23:20:23.321Z,7.13
2022-09-05T23:22:50.055Z,7.23
2022-09-05T23:25:17.587Z,6.93
2022-09-05T23:27:44.785Z,6.80
2022-09-05T23:30:12.128Z,6.70
2022-09-05T23:32:50.036Z,8.23
2022-09-05T23:35:18.440Z,7.80
2022-09-05T23:37:46.473Z,6.97
2022-09-05T23:40:21.910Z,7.60
2022-09-05T23:42:52.068Z,7.63
2022-09-05T23:45:19.434Z,7.00
2022-09-05T23:47:46.220Z,7.87
2022-09-05T23:50:13.526Z,7.03
2022-09-05T23:52:42.383Z,7.47
2022-09-05T23:55:11.041Z,7.50
2022-09-05T23:57:37.840Z,7.00
